Terminal Aerodrome Forecast
Issued by NWS

Home | Current Version | Previous Version | Text Only | Print | Product List | Glossary On
Versions: 1 2 3 4 5 6 7 8 9 10 11 12 13 14 15 16 17 18 19 20 21 22 23 24 25 26 27 28
000
FTUS41 KBOX 252329
TAFBAF
TAF
KBAF 252329Z 2600/2624 07004KT 2SM BR VCSH OVC003
     FM260400 00000KT 1SM BR OVC003
     FM261100 28004KT 2SM BR BKN010
     FM261300 28007KT P6SM BKN020
     FM261500 28011G20KT P6SM SCT050=

USA.gov is the U.S. government's official web portal to all federal, state and local government web resources and services.